KMXF/MXF METAR and TAF weather

Enter ICAO airport designator
Station Type Date Time Source
KMXF METAR 2022/12/04 04:10 UTC NOAA

KMXF 040410Z AUTO 00000KT 1 3/8SM BR BKN001 BKN030 BKN037 OVC044 16/14 A3027 RMK AO2 VIS 7/8V1 3/8 SLP252


Station Type Date Time Source
KMXF Decoded METAR 2022/12/04 04:10 UTC NOAA

Maxwell Air Force Base / Montgomery, AL, United States (KMXF) 32-23N 086-22W
Dec 03, 2022 - 11:10 PM EST / 2022.12.04 0410 UTC
Wind: Calm:0
Visibility: 1 3/8 mile(s):0
Sky conditions: overcast
Weather: mist
Temperature: 60 F (16 C)
Dew Point: 57 F (14 C)
Relative Humidity: 87%
Pressure (altimeter): 30.27 in. Hg (1025 hPa)
ob: KMXF 040410Z AUTO 00000KT 1 3/8SM BR BKN001 BKN030 BKN037 OVC044 16/14 A3027 RMK AO2 VIS 7/8V1 3/8 SLP252
cycle: 4

Station Type Date Time Source
KMXF TAF 2022/12/03 20:06 UTC NOAA

TAF TAF KMXF 032000Z 0320/0502 VRB06KT 9000 -SHRA BKN007 OVC025 QNH3025INS
BECMG 0321/0322 VRB06KT 9000 -SHRA BKN005 OVC020 QNH3023INS
TEMPO 0322/0324 SCT005 BKN010
BECMG 0403/0404 VRB06KT 4800 BR BKN005 QNH3020INS
BECMG 0420/0421 VRB06KT 9999 NSW FEW005 BKN012 QNH3015INS TX23/0420Z TN13/0412Z LAST NO
AMDS AFT 0400 NEXT 0412

Example: see airport list